sensor_id;sensor_type;location;lat;lon;timestamp;pressure;altitude;pressure_sealevel;temperature;humidity
64336;BME280;50672;53.362;-6.240;2023-02-03T00:01:57;102605.47;;;10.21;80.89
64336;BME280;50672;53.362;-6.240;2023-02-03T00:04:24;102613.63;;;10.21;81.11
64336;BME280;50672;53.362;-6.240;2023-02-03T00:06:51;102617.25;;;10.21;80.90
64336;BME280;50672;53.362;-6.240;2023-02-03T00:09:18;102611.81;;;10.21;81.01
64336;BME280;50672;53.362;-6.240;2023-02-03T00:11:46;102628.13;;;10.21;81.08
64336;BME280;50672;53.362;-6.240;2023-02-03T00:14:13;102629.00;;;10.22;81.28
64336;BME280;50672;53.362;-6.240;2023-02-03T00:16:39;102629.00;;;10.22;81.64
64336;BME280;50672;53.362;-6.240;2023-02-03T00:19:06;102632.56;;;10.22;81.62
64336;BME280;50672;53.362;-6.240;2023-02-03T00:21:33;102630.84;;;10.21;81.43
64336;BME280;50672;53.362;-6.240;2023-02-03T00:23:59;102630.72;;;10.23;81.61
64336;BME280;50672;53.362;-6.240;2023-02-03T00:26:26;102626.13;;;10.23;81.33
64336;BME280;50672;53.362;-6.240;2023-02-03T00:28:54;102617.00;;;10.24;81.37
64336;BME280;50672;53.362;-6.240;2023-02-03T00:31:22;102631.56;;;10.23;81.75
64336;BME280;50672;53.362;-6.240;2023-02-03T00:33:55;102619.84;;;10.23;81.75
64336;BME280;50672;53.362;-6.240;2023-02-03T00:36:23;102627.13;;;10.22;81.68
64336;BME280;50672;53.362;-6.240;2023-02-03T00:38:50;102631.56;;;10.23;81.93
64336;BME280;50672;53.362;-6.240;2023-02-03T00:41:18;102628.84;;;10.23;81.87
64336;BME280;50672;53.362;-6.240;2023-02-03T00:43:45;102614.53;;;10.21;81.94
64336;BME280;50672;53.362;-6.240;2023-02-03T00:46:12;102618.59;;;10.16;82.05
64336;BME280;50672;53.362;-6.240;2023-02-03T00:48:39;102614.28;;;10.13;82.03
64336;BME280;50672;53.362;-6.240;2023-02-03T00:51:06;102619.84;;;10.12;82.04
64336;BME280;50672;53.362;-6.240;2023-02-03T00:53:32;102618.84;;;10.13;81.96
64336;BME280;50672;53.362;-6.240;2023-02-03T00:55:59;102620.59;;;10.14;82.33
64336;BME280;50672;53.362;-6.240;2023-02-03T00:58:26;102639.50;;;10.15;82.42
64336;BME280;50672;53.362;-6.240;2023-02-03T01:00:54;102628.34;;;10.18;82.42
64336;BME280;50672;53.362;-6.240;2023-02-03T01:03:22;102631.97;;;10.19;82.69
64336;BME280;50672;53.362;-6.240;2023-02-03T01:05:49;102649.91;;;10.21;82.93
64336;BME280;50672;53.362;-6.240;2023-02-03T01:08:16;102648.03;;;10.22;82.64
64336;BME280;50672;53.362;-6.240;2023-02-03T01:10:43;102636.41;;;10.20;83.01
64336;BME280;50672;53.362;-6.240;2023-02-03T01:13:10;102651.16;;;10.17;83.19
64336;BME280;50672;53.362;-6.240;2023-02-03T01:15:37;102640.50;;;10.14;83.23
64336;BME280;50672;53.362;-6.240;2023-02-03T01:18:04;102652.38;;;10.13;83.02
64336;BME280;50672;53.362;-6.240;2023-02-03T01:20:30;102646.06;;;10.13;83.22
64336;BME280;50672;53.362;-6.240;2023-02-03T01:22:57;102667.22;;;10.09;83.50
64336;BME280;50672;53.362;-6.240;2023-02-03T01:25:24;102665.25;;;10.11;83.29
64336;BME280;50672;53.362;-6.240;2023-02-03T01:27:51;102663.28;;;10.13;83.86
64336;BME280;50672;53.362;-6.240;2023-02-03T01:30:18;102668.72;;;10.13;83.52
64336;BME280;50672;53.362;-6.240;2023-02-03T01:32:45;102668.72;;;10.13;83.83
64336;BME280;50672;53.362;-6.240;2023-02-03T01:35:11;102670.41;;;10.14;84.08
64336;BME280;50672;53.362;-6.240;2023-02-03T01:37:38;102676.75;;;10.15;83.99
64336;BME280;50672;53.362;-6.240;2023-02-03T01:40:05;102682.31;;;10.13;84.27
64336;BME280;50672;53.362;-6.240;2023-02-03T01:42:32;102691.47;;;10.12;84.11
64336;BME280;50672;53.362;-6.240;2023-02-03T01:44:59;102689.84;;;10.09;84.44
64336;BME280;50672;53.362;-6.240;2023-02-03T01:48:06;102692.72;;;10.08;84.65
64336;BME280;50672;53.362;-6.240;2023-02-03T01:50:35;102697.28;;;10.07;84.84
64336;BME280;50672;53.362;-6.240;2023-02-03T01:53:07;102701.13;;;10.05;84.92
64336;BME280;50672;53.362;-6.240;2023-02-03T01:55:37;102716.56;;;10.04;85.15
64336;BME280;50672;53.362;-6.240;2023-02-03T01:58:31;102714.84;;;10.03;85.17
64336;BME280;50672;53.362;-6.240;2023-02-03T02:00:57;102701.34;;;10.02;85.31
64336;BME280;50672;53.362;-6.240;2023-02-03T02:03:40;102703.22;;;10.01;85.47
64336;BME280;50672;53.362;-6.240;2023-02-03T02:06:12;102704.06;;;10.02;85.58
64336;BME280;50672;53.362;-6.240;2023-02-03T02:08:41;102704.06;;;10.02;85.75
64336;BME280;50672;53.362;-6.240;2023-02-03T02:11:10;102718.69;;;10.01;85.77
64336;BME280;50672;53.362;-6.240;2023-02-03T02:13:37;102719.53;;;10.01;85.75
64336;BME280;50672;53.362;-6.240;2023-02-03T02:22:02;102717.06;;;9.98;86.21
64336;BME280;50672;53.362;-6.240;2023-02-03T02:31:09;102723.63;;;9.96;86.92
64336;BME280;50672;53.362;-6.240;2023-02-03T02:41:43;102721.75;;;9.96;87.25
64336;BME280;50672;53.362;-6.240;2023-02-03T02:44:24;102722.63;;;9.97;87.52
64336;BME280;50672;53.362;-6.240;2023-02-03T02:47:00;102723.50;;;9.97;87.61
64336;BME280;50672;53.362;-6.240;2023-02-03T02:49:38;102727.09;;;9.98;87.65
64336;BME280;50672;53.362;-6.240;2023-02-03T02:52:10;102729.81;;;9.98;87.41
64336;BME280;50672;53.362;-6.240;2023-02-03T02:54:41;102735.00;;;10.01;87.86
64336;BME280;50672;53.362;-6.240;2023-02-03T02:57:12;102738.56;;;10.01;87.48
64336;BME280;50672;53.362;-6.240;2023-02-03T02:59:40;102729.44;;;10.02;87.71
64336;BME280;50672;53.362;-6.240;2023-02-03T03:02:09;102734.88;;;10.02;87.83
64336;BME280;50672;53.362;-6.240;2023-02-03T03:04:37;102738.44;;;10.03;88.03
64336;BME280;50672;53.362;-6.240;2023-02-03T03:07:10;102720.16;;;10.05;88.17
64336;BME280;50672;53.362;-6.240;2023-02-03T03:09:43;102742.78;;;10.05;87.87
64336;BME280;50672;53.362;-6.240;2023-02-03T03:12:23;102722.88;;;10.05;88.29
64336;BME280;50672;53.362;-6.240;2023-02-03T03:14:55;102730.16;;;10.04;88.55
64336;BME280;50672;53.362;-6.240;2023-02-03T03:17:27;102731.91;;;10.05;88.04
64336;BME280;50672;53.362;-6.240;2023-02-03T03:19:56;102730.03;;;10.06;88.14
64336;BME280;50672;53.362;-6.240;2023-02-03T03:22:30;102736.38;;;10.06;88.19
64336;BME280;50672;53.362;-6.240;2023-02-03T03:25:05;102721.03;;;10.05;88.47
64336;BME280;50672;53.362;-6.240;2023-02-03T03:27:38;102725.59;;;10.05;88.61
64336;BME280;50672;53.362;-6.240;2023-02-03T03:30:12;102709.28;;;10.05;88.58
64336;BME280;50672;53.362;-6.240;2023-02-03T03:32:40;102711.00;;;10.06;88.33
64336;BME280;50672;53.362;-6.240;2023-02-03T03:35:07;102712.72;;;10.07;88.73
64336;BME280;50672;53.362;-6.240;2023-02-03T03:37:37;102716.44;;;10.06;88.88
64336;BME280;50672;53.362;-6.240;2023-02-03T03:40:40;102728.19;;;10.06;88.95
64336;BME280;50672;53.362;-6.240;2023-02-03T03:43:16;102736.25;;;10.08;88.74
64336;BME280;50672;53.362;-6.240;2023-02-03T03:45:57;102727.31;;;10.06;88.89
64336;BME280;50672;53.362;-6.240;2023-02-03T03:48:31;102727.22;;;10.07;88.98
64336;BME280;50672;53.362;-6.240;2023-02-03T03:51:04;102734.38;;;10.08;88.70
64336;BME280;50672;53.362;-6.240;2023-02-03T03:53:34;102736.25;;;10.08;88.62
64336;BME280;50672;53.362;-6.240;2023-02-03T03:56:02;102738.84;;;10.09;88.76
64336;BME280;50672;53.362;-6.240;2023-02-03T03:58:32;102729.81;;;10.09;88.99
64336;BME280;50672;53.362;-6.240;2023-02-03T04:01:00;102730.53;;;10.11;88.79
64336;BME280;50672;53.362;-6.240;2023-02-03T04:03:37;102727.94;;;10.09;88.93
64336;BME280;50672;53.362;-6.240;2023-02-03T04:06:05;102724.25;;;10.11;88.88
64336;BME280;50672;53.362;-6.240;2023-02-03T04:08:32;102719.66;;;10.11;88.99
64336;BME280;50672;53.362;-6.240;2023-02-03T04:10:59;102734.13;;;10.12;88.70
64336;BME280;50672;53.362;-6.240;2023-02-03T04:13:26;102725.97;;;10.12;88.55
64336;BME280;50672;53.362;-6.240;2023-02-03T04:15:52;102731.41;;;10.12;88.70
64336;BME280;50672;53.362;-6.240;2023-02-03T04:18:19;102737.72;;;10.12;88.78
64336;BME280;50672;53.362;-6.240;2023-02-03T04:20:46;102729.56;;;10.12;88.86
64336;BME280;50672;53.362;-6.240;2023-02-03T04:23:13;102734.03;;;10.13;88.75
64336;BME280;50672;53.362;-6.240;2023-02-03T04:25:40;102725.09;;;10.11;88.64
64336;BME280;50672;53.362;-6.240;2023-02-03T04:28:06;102708.78;;;10.11;88.64
64336;BME280;50672;53.362;-6.240;2023-02-03T04:30:33;102716.09;;;10.11;88.96
64336;BME280;50672;53.362;-6.240;2023-02-03T04:33:00;102722.50;;;10.09;88.91
64336;BME280;50672;53.362;-6.240;2023-02-03T04:35:27;102707.03;;;10.10;88.49
64336;BME280;50672;53.362;-6.240;2023-02-03T04:37:54;102700.00;;;10.07;88.77
64336;BME280;50672;53.362;-6.240;2023-02-03T04:40:20;102709.88;;;10.08;88.85
64336;BME280;50672;53.362;-6.240;2023-02-03T04:42:47;102713.50;;;10.09;88.82
64336;BME280;50672;53.362;-6.240;2023-02-03T04:45:14;102714.59;;;10.06;88.70
64336;BME280;50672;53.362;-6.240;2023-02-03T04:47:41;102719.91;;;10.08;88.63
64336;BME280;50672;53.362;-6.240;2023-02-03T04:50:08;102718.03;;;10.08;88.44
64336;BME280;50672;53.362;-6.240;2023-02-03T04:52:35;102710.78;;;10.09;88.56
64336;BME280;50672;53.362;-6.240;2023-02-03T04:55:02;102713.50;;;10.09;88.52
64336;BME280;50672;53.362;-6.240;2023-02-03T04:57:29;102707.03;;;10.10;88.68
64336;BME280;50672;53.362;-6.240;2023-02-03T04:59:56;102712.47;;;10.10;88.82
64336;BME280;50672;53.362;-6.240;2023-02-03T05:02:23;102718.81;;;10.11;88.51
64336;BME280;50672;53.362;-6.240;2023-02-03T05:04:49;102705.31;;;10.09;88.42
64336;BME280;50672;53.362;-6.240;2023-02-03T05:07:16;102713.50;;;10.09;88.63
64336;BME280;50672;53.362;-6.240;2023-02-03T05:09:43;102716.22;;;10.09;88.65
64336;BME280;50672;53.362;-6.240;2023-02-03T05:12:10;102716.94;;;10.11;88.23
64336;BME280;50672;53.362;-6.240;2023-02-03T05:14:37;102709.88;;;10.08;88.61
64336;BME280;50672;53.362;-6.240;2023-02-03T05:17:03;102707.03;;;10.10;88.30
64336;BME280;50672;53.362;-6.240;2023-02-03T05:19:30;102717.06;;;10.09;88.49
64336;BME280;50672;53.362;-6.240;2023-02-03T05:21:57;102713.50;;;10.09;88.01
64336;BME280;50672;53.362;-6.240;2023-02-03T05:24:24;102709.88;;;10.08;87.98
64336;BME280;50672;53.362;-6.240;2023-02-03T05:26:50;102727.09;;;10.09;88.11
64336;BME280;50672;53.362;-6.240;2023-02-03T05:29:17;102727.22;;;10.07;88.20
64336;BME280;50672;53.362;-6.240;2023-02-03T05:31:44;102725.34;;;10.08;88.19
64336;BME280;50672;53.362;-6.240;2023-02-03T05:34:11;102734.50;;;10.07;87.95
64336;BME280;50672;53.362;-6.240;2023-02-03T05:36:37;102747.25;;;10.06;87.93
64336;BME280;50672;53.362;-6.240;2023-02-03T05:39:04;102750.81;;;10.07;88.04
64336;BME280;50672;53.362;-6.240;2023-02-03T05:41:31;102752.81;;;10.05;87.88
64336;BME280;50672;53.362;-6.240;2023-02-03T05:44:21;102750.22;;;10.03;87.98
64336;BME280;50672;53.362;-6.240;2023-02-03T05:46:48;102754.78;;;10.03;87.82
64336;BME280;50672;53.362;-6.240;2023-02-03T05:49:15;102762.22;;;10.01;88.11
64336;BME280;50672;53.362;-6.240;2023-02-03T05:51:42;102771.34;;;10.00;87.88
64336;BME280;50672;53.362;-6.240;2023-02-03T05:54:09;102753.28;;;9.99;87.92
64336;BME280;50672;53.362;-6.240;2023-02-03T05:56:36;102766.91;;;9.99;88.33
64336;BME280;50672;53.362;-6.240;2023-02-03T05:59:03;102772.47;;;9.97;88.36
64336;BME280;50672;53.362;-6.240;2023-02-03T06:01:31;102775.19;;;9.97;88.25
64336;BME280;50672;53.362;-6.240;2023-02-03T06:03:58;102777.28;;;9.94;88.06
64336;BME280;50672;53.362;-6.240;2023-02-03T06:06:26;102788.19;;;9.94;88.45
64336;BME280;50672;53.362;-6.240;2023-02-03T06:09:04;102790.00;;;9.93;88.23
64336;BME280;50672;53.362;-6.240;2023-02-03T06:11:31;102796.34;;;9.94;88.38
64336;BME280;50672;53.362;-6.240;2023-02-03T06:13:59;102809.94;;;9.94;88.60
64336;BME280;50672;53.362;-6.240;2023-02-03T06:16:26;102802.75;;;9.92;88.25
64336;BME280;50672;53.362;-6.240;2023-02-03T06:18:55;102800.91;;;9.93;88.35
64336;BME280;50672;53.362;-6.240;2023-02-03T06:21:26;102810.91;;;9.92;88.58
64336;BME280;50672;53.362;-6.240;2023-02-03T06:23:53;102808.94;;;9.95;88.78
64336;BME280;50672;53.362;-6.240;2023-02-03T06:26:21;102811.66;;;9.95;88.69
64336;BME280;50672;53.362;-6.240;2023-02-03T06:28:48;102817.09;;;9.95;88.29
64336;BME280;50672;53.362;-6.240;2023-02-03T06:31:15;102817.09;;;9.95;88.64
64336;BME280;50672;53.362;-6.240;2023-02-03T06:33:42;102829.72;;;9.96;88.51
64336;BME280;50672;53.362;-6.240;2023-02-03T06:36:09;102826.03;;;9.97;88.50
64336;BME280;50672;53.362;-6.240;2023-02-03T06:38:36;102842.34;;;9.97;88.45
64336;BME280;50672;53.362;-6.240;2023-02-03T06:41:03;102844.09;;;9.98;88.75
64336;BME280;50672;53.362;-6.240;2023-02-03T06:43:30;102842.34;;;9.97;88.39
64336;BME280;50672;53.362;-6.240;2023-02-03T06:45:56;102849.53;;;9.98;88.58
64336;BME280;50672;53.362;-6.240;2023-02-03T06:48:23;102865.84;;;9.98;88.57
64336;BME280;50672;53.362;-6.240;2023-02-03T06:50:50;102864.84;;;9.99;88.65
64336;BME280;50672;53.362;-6.240;2023-02-03T06:53:17;102875.72;;;9.99;88.30
64336;BME280;50672;53.362;-6.240;2023-02-03T06:55:44;102873.75;;;10.01;88.54
64336;BME280;50672;53.362;-6.240;2023-02-03T06:58:10;102861.13;;;10.00;88.24
64336;BME280;50672;53.362;-6.240;2023-02-03T07:00:37;102864.84;;;9.99;88.42
64336;BME280;50672;53.362;-6.240;2023-02-03T07:03:04;102857.69;;;9.98;88.25
64336;BME280;50672;53.362;-6.240;2023-02-03T07:05:31;102858.66;;;9.97;88.27
64336;BME280;50672;53.362;-6.240;2023-02-03T07:07:58;102863.47;;;9.93;88.47
64336;BME280;50672;53.362;-6.240;2023-02-03T07:10:25;102855.66;;;9.88;88.76
64336;BME280;50672;53.362;-6.240;2023-02-03T07:12:52;102849.59;;;9.85;88.50
64336;BME280;50672;53.362;-6.240;2023-02-03T07:15:19;102833.50;;;9.82;88.65
64336;BME280;50672;53.362;-6.240;2023-02-03T07:17:47;102838.56;;;9.75;88.38
64336;BME280;50672;53.362;-6.240;2023-02-03T07:20:21;102839.91;;;9.69;88.53
64336;BME280;50672;53.362;-6.240;2023-02-03T07:22:55;102842.34;;;9.61;88.91
64336;BME280;50672;53.362;-6.240;2023-02-03T07:25:23;102841.97;;;9.54;88.90
64336;BME280;50672;53.362;-6.240;2023-02-03T07:27:50;102839.56;;;9.50;88.99
64336;BME280;50672;53.362;-6.240;2023-02-03T07:30:17;102837.22;;;9.45;89.03
64336;BME280;50672;53.362;-6.240;2023-02-03T07:32:51;102836.69;;;9.40;88.88
64336;BME280;50672;53.362;-6.240;2023-02-03T07:35:19;102853.22;;;9.37;89.09
64336;BME280;50672;53.362;-6.240;2023-02-03T07:37:45;102854.44;;;9.33;89.19
64336;BME280;50672;53.362;-6.240;2023-02-03T07:40:13;102869.78;;;9.34;89.21
64336;BME280;50672;53.362;-6.240;2023-02-03T07:42:44;102868.78;;;9.35;89.55
64336;BME280;50672;53.362;-6.240;2023-02-03T07:45:12;102878.66;;;9.36;89.15
64336;BME280;50672;53.362;-6.240;2023-02-03T07:47:41;102887.81;;;9.35;89.38
64336;BME280;50672;53.362;-6.240;2023-02-03T07:50:09;102889.78;;;9.33;89.61
64336;BME280;50672;53.362;-6.240;2023-02-03T07:52:36;102903.38;;;9.33;89.14
64336;BME280;50672;53.362;-6.240;2023-02-03T07:55:04;102911.53;;;9.33;89.29
64336;BME280;50672;53.362;-6.240;2023-02-03T07:57:31;102907.94;;;9.32;89.70
64336;BME280;50672;53.362;-6.240;2023-02-03T07:59:57;102907.06;;;9.32;89.45
64336;BME280;50672;53.362;-6.240;2023-02-03T08:02:24;102919.91;;;9.30;89.38
64336;BME280;50672;53.362;-6.240;2023-02-03T08:04:51;102911.75;;;9.30;89.81
64336;BME280;50672;53.362;-6.240;2023-02-03T08:07:18;102933.63;;;9.28;89.81
64336;BME280;50672;53.362;-6.240;2023-02-03T08:09:44;102930.00;;;9.28;89.69
64336;BME280;50672;53.362;-6.240;2023-02-03T08:12:11;102929.03;;;9.29;89.58
64336;BME280;50672;53.362;-6.240;2023-02-03T08:14:38;102935.25;;;9.31;89.72
64336;BME280;50672;53.362;-6.240;2023-02-03T08:17:04;102951.44;;;9.32;89.96
64336;BME280;50672;53.362;-6.240;2023-02-03T08:19:32;102947.28;;;9.39;89.57
64336;BME280;50672;53.362;-6.240;2023-02-03T08:21:59;102955.97;;;9.45;89.92
64336;BME280;50672;53.362;-6.240;2023-02-03T08:24:26;102960.09;;;9.50;89.54
64336;BME280;50672;53.362;-6.240;2023-02-03T08:26:53;102975.06;;;9.56;89.94
64336;BME280;50672;53.362;-6.240;2023-02-03T08:29:20;102969.28;;;9.61;89.71
64336;BME280;50672;53.362;-6.240;2023-02-03T08:31:46;102969.81;;;9.66;89.84
64336;BME280;50672;53.362;-6.240;2023-02-03T08:34:14;102977.63;;;9.70;89.69
64336;BME280;50672;53.362;-6.240;2023-02-03T08:36:40;102973.81;;;9.73;89.71
64336;BME280;50672;53.362;-6.240;2023-02-03T08:39:08;102984.19;;;9.79;89.55
64336;BME280;50672;53.362;-6.240;2023-02-03T08:41:35;102979.41;;;9.83;89.40
64336;BME280;50672;53.362;-6.240;2023-02-03T08:44:02;102980.03;;;9.86;89.12
64336;BME280;50672;53.362;-6.240;2023-02-03T08:46:29;102971.13;;;9.84;89.36
64336;BME280;50672;53.362;-6.240;2023-02-03T08:48:56;102975.94;;;9.81;89.02
64336;BME280;50672;53.362;-6.240;2023-02-03T08:51:23;102966.38;;;9.75;89.05
64336;BME280;50672;53.362;-6.240;2023-02-03T08:53:50;102968.59;;;9.70;88.93
64336;BME280;50672;53.362;-6.240;2023-02-03T08:56:17;102970.66;;;9.66;88.38
64336;BME280;50672;53.362;-6.240;2023-02-03T08:58:44;102981.66;;;9.65;88.72
64336;BME280;50672;53.362;-6.240;2023-02-03T09:01:13;102998.94;;;9.64;88.37
64336;BME280;50672;53.362;-6.240;2023-02-03T09:03:41;103009.81;;;9.64;88.29
64336;BME280;50672;53.362;-6.240;2023-02-03T09:06:09;103013.31;;;9.66;87.91
64336;BME280;50672;53.362;-6.240;2023-02-03T09:08:37;103015.03;;;9.67;88.01
64336;BME280;50672;53.362;-6.240;2023-02-03T09:11:12;103017.63;;;9.68;87.88
64336;BME280;50672;53.362;-6.240;2023-02-03T09:13:39;103014.81;;;9.70;87.69
64336;BME280;50672;53.362;-6.240;2023-02-03T09:16:09;103017.44;;;9.71;87.41
64336;BME280;50672;53.362;-6.240;2023-02-03T09:18:35;103020.78;;;9.75;87.19
64336;BME280;50672;53.362;-6.240;2023-02-03T09:21:04;103025.66;;;9.83;87.06
64336;BME280;50672;53.362;-6.240;2023-02-03T09:23:31;103034.97;;;9.91;86.98
64336;BME280;50672;53.362;-6.240;2023-02-03T09:26:08;103039.72;;;10.01;86.80
64336;BME280;50672;53.362;-6.240;2023-02-03T09:28:36;103050.91;;;10.09;86.56
64336;BME280;50672;53.362;-6.240;2023-02-03T09:31:14;103054.91;;;10.16;86.63
64336;BME280;50672;53.362;-6.240;2023-02-03T09:33:43;103048.97;;;10.22;86.13
64336;BME280;50672;53.362;-6.240;2023-02-03T09:36:11;103049.75;;;10.24;86.20
64336;BME280;50672;53.362;-6.240;2023-02-03T09:38:38;103048.53;;;10.29;85.73
64336;BME280;50672;53.362;-6.240;2023-02-03T09:44:07;103054.47;;;10.34;85.41
64336;BME280;50672;53.362;-6.240;2023-02-03T09:46:43;103051.56;;;10.37;85.08
64336;BME280;50672;53.362;-6.240;2023-02-03T09:49:21;103053.28;;;10.38;84.91
64336;BME280;50672;53.362;-6.240;2023-02-03T09:52:14;103052.19;;;10.40;84.55
64336;BME280;50672;53.362;-6.240;2023-02-03T09:55:32;103066.56;;;10.42;84.20
64336;BME280;50672;53.362;-6.240;2023-02-03T09:58:14;103070.66;;;10.48;83.62
64336;BME280;50672;53.362;-6.240;2023-02-03T10:00:45;103073.03;;;10.53;83.60
64336;BME280;50672;53.362;-6.240;2023-02-03T10:03:43;103068.97;;;10.58;83.45
64336;BME280;50672;53.362;-6.240;2023-02-03T10:06:35;103076.69;;;10.65;82.99
64336;BME280;50672;53.362;-6.240;2023-02-03T10:09:18;103069.75;;;10.72;82.43
64336;BME280;50672;53.362;-6.240;2023-02-03T10:17:38;103080.16;;;10.78;81.59
64336;BME280;50672;53.362;-6.240;2023-02-03T10:20:27;103074.75;;;10.89;81.51
64336;BME280;50672;53.362;-6.240;2023-02-03T10:22:58;103071.69;;;10.94;80.92
64336;BME280;50672;53.362;-6.240;2023-02-03T10:25:41;103083.56;;;11.04;80.60
64336;BME280;50672;53.362;-6.240;2023-02-03T10:28:30;103074.16;;;11.08;80.15
64336;BME280;50672;53.362;-6.240;2023-02-03T10:31:00;103071.06;;;11.13;80.22
64336;BME280;50672;53.362;-6.240;2023-02-03T10:33:32;103076.06;;;11.19;79.81
64336;BME280;50672;53.362;-6.240;2023-02-03T10:36:22;103076.28;;;11.16;79.35
64336;BME280;50672;53.362;-6.240;2023-02-03T10:41:24;103069.25;;;11.25;78.60
64336;BME280;50672;53.362;-6.240;2023-02-03T10:43:54;103077.41;;;11.25;78.23
64336;BME280;50672;53.362;-6.240;2023-02-03T10:46:34;103072.81;;;11.25;78.03
64336;BME280;50672;53.362;-6.240;2023-02-03T10:49:02;103069.84;;;11.28;77.64
64336;BME280;50672;53.362;-6.240;2023-02-03T10:51:35;103070.47;;;11.32;77.73
64336;BME280;50672;53.362;-6.240;2023-02-03T10:54:02;103073.81;;;11.36;77.32
64336;BME280;50672;53.362;-6.240;2023-02-03T10:56:33;103078.03;;;11.40;77.09
64336;BME280;50672;53.362;-6.240;2023-02-03T10:59:02;103088.84;;;11.41;76.90
64336;BME280;50672;53.362;-6.240;2023-02-03T11:03:59;103068.59;;;11.44;76.28
64336;BME280;50672;53.362;-6.240;2023-02-03T11:06:26;103087.94;;;11.41;76.14
64336;BME280;50672;53.362;-6.240;2023-02-03T11:08:54;103083.25;;;11.43;76.03
64336;BME280;50672;53.362;-6.240;2023-02-03T11:11:25;103083.13;;;11.44;76.04
64336;BME280;50672;53.362;-6.240;2023-02-03T11:14:15;103084.75;;;11.47;75.73
64336;BME280;50672;53.362;-6.240;2023-02-03T11:16:42;103083.50;;;11.51;75.53
64336;BME280;50672;53.362;-6.240;2023-02-03T11:19:17;103074.19;;;11.54;75.55
64336;BME280;50672;53.362;-6.240;2023-02-03T11:21:48;103076.69;;;11.57;75.12
64336;BME280;50672;53.362;-6.240;2023-02-03T11:24:19;103093.66;;;11.60;75.26
64336;BME280;50672;53.362;-6.240;2023-02-03T11:26:51;103076.66;;;11.68;75.14
64336;BME280;50672;53.362;-6.240;2023-02-03T11:29:26;103078.03;;;11.74;74.75
64336;BME280;50672;53.362;-6.240;2023-02-03T11:31:56;103085.94;;;11.77;74.39
64336;BME280;50672;53.362;-6.240;2023-02-03T11:34:35;103086.69;;;11.79;74.08
64336;BME280;50672;53.362;-6.240;2023-02-03T11:37:28;103093.63;;;11.83;74.29
64336;BME280;50672;53.362;-6.240;2023-02-03T11:42:35;103093.63;;;11.83;73.67
64336;BME280;50672;53.362;-6.240;2023-02-03T11:45:24;103100.44;;;11.89;73.40
64336;BME280;50672;53.362;-6.240;2023-02-03T12:04:58;103102.59;;;11.74;72.08
64336;BME280;50672;53.362;-6.240;2023-02-03T12:13:22;103109.13;;;11.83;72.86
64336;BME280;50672;53.362;-6.240;2023-02-03T12:18:55;103109.00;;;11.84;72.41
64336;BME280;50672;53.362;-6.240;2023-02-03T12:24:14;103103.56;;;11.95;72.52
64336;BME280;50672;53.362;-6.240;2023-02-03T12:27:00;103094.38;;;11.96;72.46
64336;BME280;50672;53.362;-6.240;2023-02-03T12:29:38;103107.06;;;11.98;72.62
64336;BME280;50672;53.362;-6.240;2023-02-03T12:32:19;103096.13;;;11.98;72.35
64336;BME280;50672;53.362;-6.240;2023-02-03T12:35:28;103090.28;;;12.02;72.17
64336;BME280;50672;53.362;-6.240;2023-02-03T12:38:04;103093.75;;;12.16;71.79
64336;BME280;50672;53.362;-6.240;2023-02-03T12:40:40;103090.78;;;12.40;71.74
64336;BME280;50672;53.362;-6.240;2023-02-03T12:43:32;103092.75;;;12.49;71.29
64336;BME280;50672;53.362;-6.240;2023-02-03T12:46:11;103094.22;;;12.53;71.10
64336;BME280;50672;53.362;-6.240;2023-02-03T12:48:46;103088.16;;;12.71;70.74
64336;BME280;50672;53.362;-6.240;2023-02-03T12:53:58;103093.56;;;12.82;70.43
64336;BME280;50672;53.362;-6.240;2023-02-03T12:56:38;103097.84;;;12.75;69.58
64336;BME280;50672;53.362;-6.240;2023-02-03T12:59:13;103087.44;;;12.69;69.81
64336;BME280;50672;53.362;-6.240;2023-02-03T13:04:39;103092.22;;;12.76;69.26
64336;BME280;50672;53.362;-6.240;2023-02-03T13:10:30;103106.03;;;12.75;69.02
64336;BME280;50672;53.362;-6.240;2023-02-03T13:12:59;103101.31;;;12.77;68.97
64336;BME280;50672;53.362;-6.240;2023-02-03T13:15:38;103113.88;;;12.68;68.66
64336;BME280;50672;53.362;-6.240;2023-02-03T13:20:55;103098.28;;;12.59;68.75
64336;BME280;50672;53.362;-6.240;2023-02-03T13:23:22;103098.88;;;12.62;68.28
64336;BME280;50672;53.362;-6.240;2023-02-03T13:40:16;103099.38;;;12.35;68.22
64336;BME280;50672;53.362;-6.240;2023-02-03T13:42:52;103114.75;;;12.36;68.25
64336;BME280;50672;53.362;-6.240;2023-02-03T13:45:31;103093.38;;;12.41;67.91
64336;BME280;50672;53.362;-6.240;2023-02-03T13:48:38;103100.09;;;12.37;68.15
64336;BME280;50672;53.362;-6.240;2023-02-03T13:51:14;103104.19;;;12.43;67.85
64336;BME280;50672;53.362;-6.240;2023-02-03T13:53:43;103104.59;;;12.38;67.68
64336;BME280;50672;53.362;-6.240;2023-02-03T13:56:18;103111.03;;;12.37;67.71
64336;BME280;50672;53.362;-6.240;2023-02-03T13:59:29;103110.44;;;12.34;68.15
64336;BME280;50672;53.362;-6.240;2023-02-03T14:04:52;103109.72;;;12.20;67.91
64336;BME280;50672;53.362;-6.240;2023-02-03T14:15:27;103127.63;;;12.13;68.04
64336;BME280;50672;53.362;-6.240;2023-02-03T14:18:01;103135.69;;;12.14;68.23
64336;BME280;50672;53.362;-6.240;2023-02-03T14:22:58;103127.75;;;12.11;67.75
64336;BME280;50672;53.362;-6.240;2023-02-03T14:25:29;103136.66;;;12.13;67.63
64336;BME280;50672;53.362;-6.240;2023-02-03T14:28:04;103133.22;;;12.11;67.69
64336;BME280;50672;53.362;-6.240;2023-02-03T14:30:32;103135.06;;;12.11;67.95
64336;BME280;50672;53.362;-6.240;2023-02-03T14:33:00;103129.72;;;12.09;68.01
64336;BME280;50672;53.362;-6.240;2023-02-03T14:35:35;103129.84;;;12.08;67.95
64336;BME280;50672;53.362;-6.240;2023-02-03T14:38:09;103126.25;;;12.07;67.63
64336;BME280;50672;53.362;-6.240;2023-02-03T14:43:27;103140.44;;;12.45;67.55
64336;BME280;50672;53.362;-6.240;2023-02-03T15:05:33;103134.00;;;13.42;65.25
64336;BME280;50672;53.362;-6.240;2023-02-03T15:08:00;103133.75;;;13.33;65.02
64336;BME280;50672;53.362;-6.240;2023-02-03T15:10:40;103130.97;;;13.24;64.83